Luz, Brazil
Current Conditions -  °F | °C
As of 3:00 AM on Tuesday 23 Dec 2014 (Local Time) from SBBH Reporting Station
Clear Clear  
Wind Chill: 72°   Ceiling: Unl
Heat Index: 72°   Visibility: 6mi
Dew Point: 66°   Wind: 5mph
Humidity: 83%   Direction: 60°ENE
Pressure: 30"   Gusts: NA
Location:  19.8°S, 45.69°W
Report Text: SBBH 230500Z 06004KT CAVOK 22/19 Q1016
Loading
Personal Weather Stations






























Interactive Weather Map New forecast layout! Learn more

10-Day Weather Forecast

Advertisements
Track Severe Weather on mobile